»·PEaware :: N690B KSBP-KSMX

N690B :: KSBP-KSMX

FLIGHT INFORMATION

Flight Status: Arrived
Operator: Privately registered:
United States
More flights under this callsign
Pilot: Kaloso N. (23070)
Aircraft: BEECH AIRCRAFT BARON
(BE58)
More flights by this aircraft type
Origin: KSBP San Luis Co Regl
United States
Destination: KSMX Santa Maria Pub/Capt Hancock
United States
More flights between these airports :: More routes between these airports
Route: +
File this flight plan on PilotEdge
Remarks: NONE
Altitude:
(Current/Filed)
3,500ft
Speed:
(Current/Filed)
165kts
Departed: 10-Feb-19 02:55 PM
Arrived: 10-Feb-19 03:09 PM
Distance/Time
Traveled:
22nm/0:14
Distance/Time
To Go:
Arrived

Flight Plot

Page will automatically refresh every two minutes.


Map Options




Map Legend


Flown Route
Filed Route
Departure Airport
Arrival Airport
Navaid (VOR, NDB)
Fix

Horizontal Profiles

Position Reports

Time Latitude Longitude Heading Altitude Ground
Speed
10-Feb-19 14:32 35.236513 -120.636905 125 216ft 0kts
10-Feb-19 14:33 35.236513 -120.636905 125 216ft 0kts
10-Feb-19 14:34 35.236513 -120.636905 125 216ft 0kts
10-Feb-19 14:35 35.236513 -120.636905 125 216ft 0kts
10-Feb-19 14:36 35.236513 -120.636905 125 216ft 0kts
10-Feb-19 14:37 35.236513 -120.636905 125 216ft 0kts
10-Feb-19 14:38 35.236513 -120.636905 125 216ft 0kts
10-Feb-19 14:39 35.236513 -120.636905 125 216ft 0kts
10-Feb-19 14:40 35.236513 -120.636905 125 216ft 0kts
10-Feb-19 14:41 35.236513 -120.636905 125 216ft 0kts
10-Feb-19 14:42 35.236513 -120.636905 125 216ft 0kts
10-Feb-19 14:43 35.236513 -120.636905 125 216ft 0kts
10-Feb-19 14:44 35.236513 -120.636905 125 216ft 0kts
10-Feb-19 14:45 35.236513 -120.636905 125 216ft 0kts
10-Feb-19 14:46 35.236513 -120.636905 125 216ft 0kts
10-Feb-19 14:47 35.236471 -120.636833 125 216ft 3kts
10-Feb-19 14:48 35.235184 -120.635336 124 216ft 10kts
10-Feb-19 14:49 35.234130 -120.633939 212 216ft 0kts
10-Feb-19 14:50 35.234130 -120.633939 212 216ft 0kts
10-Feb-19 14:51 35.234130 -120.633939 212 216ft 0kts
10-Feb-19 14:52 35.234130 -120.633939 212 216ft 0kts
10-Feb-19 14:53 35.234367 -120.635775 304 216ft 40kts
10-Feb-19 14:55 35.252536 -120.665415 288 1596ft 119kts
10-Feb-19 14:56 35.231055 -120.689466 200 3348ft 118kts
10-Feb-19 14:57 35.189895 -120.701101 153 3428ft 182kts
10-Feb-19 14:58 35.150107 -120.660527 138 3426ft 188kts
10-Feb-19 14:59 35.110692 -120.617894 141 3425ft 189kts
10-Feb-19 15:00 35.068514 -120.579370 143 3426ft 189kts
10-Feb-19 15:01 35.027915 -120.542406 142 3424ft 176kts
10-Feb-19 15:02 34.988761 -120.506806 142 2424ft 179kts
10-Feb-19 15:03 34.953131 -120.474340 142 1562ft 120kts
10-Feb-19 15:04 34.922814 -120.450259 144 1584ft 137kts
10-Feb-19 15:05 34.890678 -120.421120 142 1338ft 151kts
10-Feb-19 15:06 34.864613 -120.411031 239 1205ft 86kts
10-Feb-19 15:07 34.878394 -120.431367 324 779ft 86kts
10-Feb-19 15:08 34.894925 -120.448482 317 265ft 61kts
10-Feb-19 15:09 34.897830 -120.450273 1 265ft 0kts
10-Feb-19 15:09 34.897830 -120.450273 1 265ft 0kts
10-Feb-19 15:11 34.897830 -120.450273 1 265ft 0kts
10-Feb-19 15:12 34.897830 -120.450273 1 265ft 0kts
10-Feb-19 15:13 34.897830 -120.450273 1 265ft 0kts
10-Feb-19 15:13 34.897830 -120.450273 1 265ft 0kts
10-Feb-19 15:14 34.897830 -120.450273 1 265ft 0kts
10-Feb-19 15:16 34.897830 -120.450273 1 265ft 0kts
10-Feb-19 15:17 34.897830 -120.450273 1 265ft 0kts
10-Feb-19 15:17 34.897830 -120.450273 1 265ft 0kts
10-Feb-19 15:18 34.897920 -120.450271 1 265ft 2kts
10-Feb-19 15:19 34.897825 -120.448643 49 265ft 10kts
10-Feb-19 15:20 34.897730 -120.447115 131 265ft 0kts
10-Feb-19 15:21 34.897730 -120.447115 131 265ft 0kts
10-Feb-19 15:22 34.897730 -120.447115 131 265ft 0kts
10-Feb-19 15:23 34.897730 -120.447115 131 265ft 0kts

Navigation Log

Ident Type
Flight plan parsing failed, navigation log unavailable